Time;durP1;ratioP1;P1;durP2;ratioP2;P2;SDS_P1;SDS_P2;PMS_P1;PMS_P2;Temp;Humidity;BMP_temperature;BMP_pressure;BME280_temperature;BME280_humidity;BME280_pressure;Samples;Min_cycle;Max_cycle;Signal;HPM_P1;HPM_P2
2021/08/16 00:02:13;;;;;;;16.90;7.57;;;;;;;;;;5106201;27;20556;-68
2021/08/16 00:04:39;;;;;;;16.00;6.85;;;;;;;;;;5115853;27;20468;-67
2021/08/16 00:07:07;;;;;;;21.65;7.07;;;;;;;;;;5117798;27;20043;-67
2021/08/16 00:09:33;;;;;;;16.98;6.47;;;;;;;;;;5114366;27;20535;-67
2021/08/16 00:11:59;;;;;;;17.23;6.80;;;;;;;;;;5107527;27;20069;-67
2021/08/16 00:14:25;;;;;;;15.13;6.35;;;;;;;;;;5117960;27;20437;-67
2021/08/16 00:16:51;;;;;;;19.33;6.68;;;;;;;;;;5109998;27;20039;-67
2021/08/16 00:19:17;;;;;;;13.57;5.70;;;;;;;;;;5112027;27;20066;-67
2021/08/16 00:21:43;;;;;;;17.17;5.28;;;;;;;;;;5111905;27;20123;-67
2021/08/16 00:24:10;;;;;;;15.30;4.95;;;;;;;;;;5114228;27;20055;-67
2021/08/16 00:26:36;;;;;;;16.33;4.95;;;;;;;;;;5116519;27;20051;-67
2021/08/16 00:29:02;;;;;;;14.52;5.00;;;;;;;;;;5106846;27;20568;-67
2021/08/16 00:31:28;;;;;;;17.55;4.95;;;;;;;;;;5114306;27;20408;-67
2021/08/16 00:33:55;;;;;;;16.48;5.03;;;;;;;;;;5117302;27;20039;-67
2021/08/16 00:36:21;;;;;;;18.73;4.80;;;;;;;;;;5114829;27;20151;-67
2021/08/16 00:38:47;;;;;;;15.98;4.85;;;;;;;;;;5108698;27;20032;-67
2021/08/16 00:41:14;;;;;;;18.85;4.93;;;;;;;;;;5119078;27;20035;-67
2021/08/16 00:43:41;;;;;;;16.58;4.90;;;;;;;;;;5114252;27;20402;-67
2021/08/16 00:46:07;;;;;;;17.70;5.15;;;;;;;;;;5111129;27;20040;-67
2021/08/16 00:48:33;;;;;;;22.73;5.60;;;;;;;;;;5109668;27;20042;-67
2021/08/16 00:51:00;;;;;;;14.23;4.53;;;;;;;;;;5119555;27;20471;-67
2021/08/16 00:53:28;;;;;;;15.10;4.47;;;;;;;;;;5109880;27;20500;-67
2021/08/16 00:55:54;;;;;;;17.90;4.63;;;;;;;;;;5111122;27;20377;-67
2021/08/16 00:58:20;;;;;;;16.30;4.00;;;;;;;;;;5110671;27;20075;-68
2021/08/16 01:00:47;;;;;;;18.90;4.65;;;;;;;;;;5120955;27;20035;-68
2021/08/16 01:03:14;;;;;;;19.73;4.30;;;;;;;;;;5112806;27;20040;-68
2021/08/16 01:05:40;;;;;;;20.70;4.70;;;;;;;;;;5112257;27;20084;-68
2021/08/16 01:08:06;;;;;;;26.10;4.63;;;;;;;;;;5108387;27;20035;-68
2021/08/16 01:10:34;;;;;;;17.92;4.25;;;;;;;;;;5111754;27;20126;-68
2021/08/16 01:13:00;;;;;;;18.73;4.32;;;;;;;;;;5113563;27;20256;-68
2021/08/16 01:15:28;;;;;;;19.98;4.63;;;;;;;;;;5107442;27;20491;-68
2021/08/16 01:17:55;;;;;;;20.15;5.50;;;;;;;;;;5118852;27;20059;-68
2021/08/16 01:20:21;;;;;;;21.67;4.75;;;;;;;;;;5108852;27;20035;-68
2021/08/16 01:22:47;;;;;;;21.92;4.88;;;;;;;;;;5109961;27;20036;-68
2021/08/16 01:25:14;;;;;;;18.92;4.60;;;;;;;;;;5110890;27;20084;-68
2021/08/16 01:27:40;;;;;;;19.77;4.75;;;;;;;;;;5117411;27;20495;-68
2021/08/16 01:30:09;;;;;;;22.88;4.88;;;;;;;;;;5107671;27;20043;-68
2021/08/16 01:32:35;;;;;;;23.95;5.38;;;;;;;;;;5114284;27;20039;-68
2021/08/16 01:35:01;;;;;;;22.00;4.90;;;;;;;;;;5092411;27;20036;-68
2021/08/16 01:37:28;;;;;;;18.83;4.18;;;;;;;;;;5117482;27;20199;-68
2021/08/16 01:39:54;;;;;;;20.85;4.93;;;;;;;;;;5108897;27;20093;-68
2021/08/16 01:42:20;;;;;;;20.80;5.18;;;;;;;;;;5107449;27;20043;-68
2021/08/16 01:44:46;;;;;;;20.88;4.72;;;;;;;;;;5114705;27;20093;-68
2021/08/16 01:47:12;;;;;;;20.42;4.55;;;;;;;;;;5106093;27;20047;-68
2021/08/16 01:49:39;;;;;;;18.73;4.32;;;;;;;;;;5115620;27;20110;-68
2021/08/16 01:52:05;;;;;;;19.05;4.40;;;;;;;;;;5105358;27;20035;-68
2021/08/16 01:54:33;;;;;;;23.90;5.15;;;;;;;;;;5115290;27;20067;-68
2021/08/16 01:57:00;;;;;;;19.20;4.75;;;;;;;;;;5108394;27;20043;-68
2021/08/16 01:59:26;;;;;;;25.15;5.70;;;;;;;;;;5115098;27;20086;-68
2021/08/16 02:01:52;;;;;;;19.13;5.15;;;;;;;;;;5106578;27;20466;-69
2021/08/16 02:04:18;;;;;;;22.10;5.18;;;;;;;;;;5115851;27;20407;-69
2021/08/16 02:06:44;;;;;;;20.90;5.15;;;;;;;;;;5109620;27;20064;-69
2021/08/16 02:09:10;;;;;;;21.35;4.82;;;;;;;;;;5113849;27;20040;-69
2021/08/16 02:11:37;;;;;;;21.95;4.82;;;;;;;;;;5111263;27;20039;-68
2021/08/16 02:14:03;;;;;;;25.60;5.88;;;;;;;;;;5115081;27;20121;-68
2021/08/16 02:16:29;;;;;;;19.73;5.05;;;;;;;;;;5107312;27;20092;-68
2021/08/16 02:18:55;;;;;;;24.90;5.32;;;;;;;;;;5117801;27;20446;-68
2021/08/16 02:21:21;;;;;;;23.95;5.28;;;;;;;;;;5118796;27;20035;-68
2021/08/16 02:23:48;;;;;;;25.23;5.82;;;;;;;;;;5105647;27;20043;-68
2021/08/16 02:26:14;;;;;;;27.13;5.25;;;;;;;;;;5114191;27;20111;-68
2021/08/16 02:28:40;;;;;;;18.98;4.97;;;;;;;;;;5108949;27;20075;-68
2021/08/16 02:31:06;;;;;;;25.75;5.20;;;;;;;;;;5114881;27;20043;-68
2021/08/16 02:33:32;;;;;;;21.92;5.63;;;;;;;;;;5100638;27;20044;-68
2021/08/16 02:35:58;;;;;;;22.38;5.72;;;;;;;;;;5113752;27;20032;-68
2021/08/16 02:38:24;;;;;;;28.98;5.65;;;;;;;;;;5111007;27;20479;-68
2021/08/16 02:40:50;;;;;;;24.33;5.53;;;;;;;;;;5111751;28;20039;-68
2021/08/16 02:43:17;;;;;;;22.13;5.57;;;;;;;;;;5100790;27;20036;-68
2021/08/16 02:45:43;;;;;;;25.13;5.68;;;;;;;;;;5116824;27;20027;-68
2021/08/16 02:48:09;;;;;;;21.98;5.28;;;;;;;;;;5107076;27;20111;-68
2021/08/16 02:50:35;;;;;;;25.67;5.68;;;;;;;;;;5111260;27;20237;-68
2021/08/16 02:53:01;;;;;;;28.25;5.95;;;;;;;;;;5107804;28;20055;-68
2021/08/16 02:55:28;;;;;;;22.70;5.53;;;;;;;;;;5116128;28;20488;-68
2021/08/16 02:57:54;;;;;;;22.67;5.60;;;;;;;;;;5111678;27;20047;-68
2021/08/16 03:00:20;;;;;;;25.83;5.43;;;;;;;;;;5108556;27;20043;-68
2021/08/16 03:02:46;;;;;;;28.00;6.20;;;;;;;;;;5117428;27;20035;-68
2021/08/16 03:05:13;;;;;;;23.67;5.70;;;;;;;;;;5115744;27;20410;-68
2021/08/16 03:07:39;;;;;;;21.83;5.22;;;;;;;;;;5117454;27;20039;-68
2021/08/16 03:10:09;;;;;;;20.85;5.00;;;;;;;;;;5109309;27;20039;-68
2021/08/16 03:12:35;;;;;;;29.00;6.15;;;;;;;;;;5100557;28;20055;-68
2021/08/16 03:15:01;;;;;;;31.92;5.93;;;;;;;;;;5117259;27;20093;-68
2021/08/16 03:17:28;;;;;;;21.95;5.95;;;;;;;;;;5116636;27;20474;-68
2021/08/16 03:19:54;;;;;;;26.80;6.50;;;;;;;;;;5109829;27;20024;-68
2021/08/16 03:22:21;;;;;;;22.83;6.13;;;;;;;;;;5117399;27;20151;-68
2021/08/16 03:24:47;;;;;;;22.83;5.15;;;;;;;;;;5106080;27;20126;-68
2021/08/16 03:27:13;;;;;;;22.50;5.65;;;;;;;;;;5112922;27;20521;-68
2021/08/16 03:29:39;;;;;;;28.65;6.28;;;;;;;;;;5113012;27;20058;-68
2021/08/16 03:32:05;;;;;;;30.63;6.43;;;;;;;;;;5101589;27;20127;-68
2021/08/16 03:34:32;;;;;;;25.45;6.07;;;;;;;;;;5103577;27;20032;-68
2021/08/16 03:36:58;;;;;;;26.33;6.30;;;;;;;;;;5115694;27;20503;-68
2021/08/16 03:39:24;;;;;;;25.42;6.22;;;;;;;;;;5117488;27;20036;-68
2021/08/16 03:41:50;;;;;;;25.02;6.30;;;;;;;;;;5111601;27;20044;-68
2021/08/16 03:44:16;;;;;;;20.88;6.10;;;;;;;;;;5115483;27;20034;-68
2021/08/16 03:46:42;;;;;;;32.53;6.32;;;;;;;;;;5106098;27;20475;-68
2021/08/16 03:49:10;;;;;;;24.67;5.78;;;;;;;;;;5120015;27;20043;-68
2021/08/16 03:51:36;;;;;;;25.73;6.97;;;;;;;;;;5110132;27;20043;-68
2021/08/16 03:54:02;;;;;;;30.35;6.15;;;;;;;;;;5116853;27;20031;-69
2021/08/16 03:56:29;;;;;;;27.23;6.18;;;;;;;;;;5109142;27;20131;-69
2021/08/16 03:58:55;;;;;;;27.30;6.20;;;;;;;;;;5122524;27;20039;-69
2021/08/16 04:01:21;;;;;;;24.65;5.80;;;;;;;;;;5107405;27;20088;-69
2021/08/16 04:03:48;;;;;;;26.08;6.13;;;;;;;;;;5085128;28;20036;-69
2021/08/16 04:06:15;;;;;;;23.85;6.45;;;;;;;;;;5114919;27;20043;-69
2021/08/16 04:08:43;;;;;;;29.40;5.82;;;;;;;;;;5116615;27;20064;-69
2021/08/16 04:11:10;;;;;;;24.77;6.03;;;;;;;;;;5108575;27;20050;-69
2021/08/16 04:13:36;;;;;;;24.45;6.43;;;;;;;;;;5100331;27;20056;-69
2021/08/16 04:16:03;;;;;;;26.33;6.10;;;;;;;;;;5115326;27;20037;-69
2021/08/16 04:18:29;;;;;;;26.42;6.00;;;;;;;;;;5114973;27;20038;-69
2021/08/16 04:20:55;;;;;;;29.02;6.63;;;;;;;;;;5115422;27;20134;-69
2021/08/16 04:23:22;;;;;;;29.92;6.53;;;;;;;;;;5111312;27;20066;-69
2021/08/16 04:25:48;;;;;;;31.92;6.43;;;;;;;;;;5121046;27;20047;-69
2021/08/16 04:28:14;;;;;;;27.10;6.28;;;;;;;;;;5106402;27;20494;-69
2021/08/16 04:30:41;;;;;;;24.17;6.60;;;;;;;;;;5111318;27;20047;-69
2021/08/16 04:33:07;;;;;;;27.50;6.82;;;;;;;;;;5111701;27;20428;-69
2021/08/16 04:35:33;;;;;;;25.80;6.60;;;;;;;;;;5105044;27;20048;-69
2021/08/16 04:37:59;;;;;;;25.08;5.78;;;;;;;;;;5105308;27;20082;-68
2021/08/16 04:40:25;;;;;;;31.98;7.05;;;;;;;;;;5116970;27;20544;-68
2021/08/16 04:42:53;;;;;;;28.38;6.80;;;;;;;;;;5109688;27;20251;-68
2021/08/16 04:45:19;;;;;;;26.58;6.97;;;;;;;;;;5112609;27;20517;-68
2021/08/16 04:47:45;;;;;;;25.58;6.63;;;;;;;;;;5108266;27;20032;-68
2021/08/16 04:50:13;;;;;;;26.13;6.70;;;;;;;;;;5118352;27;20071;-68
2021/08/16 04:52:39;;;;;;;27.35;6.32;;;;;;;;;;5110446;27;20061;-68
2021/08/16 04:55:05;;;;;;;22.30;6.18;;;;;;;;;;5115946;27;20060;-68
2021/08/16 04:57:40;;;;;;;25.48;5.85;;;;;;;;;;5103184;27;20048;-68
2021/08/16 05:00:07;;;;;;;25.92;6.65;;;;;;;;;;5119924;27;20121;-68
2021/08/16 05:02:35;;;;;;;30.00;6.90;;;;;;;;;;5115170;27;20075;-68
2021/08/16 05:05:11;;;;;;;31.33;9.40;;;;;;;;;;5108314;27;20555;-68
2021/08/16 05:07:39;;;;;;;24.35;6.53;;;;;;;;;;5113724;27;20047;-68
2021/08/16 05:10:07;;;;;;;26.08;7.10;;;;;;;;;;5112438;27;20059;-68
2021/08/16 05:12:37;;;;;;;25.17;5.60;;;;;;;;;;5116747;27;20135;-68
2021/08/16 05:15:04;;;;;;;23.30;7.20;;;;;;;;;;5106670;27;20448;-68
2021/08/16 05:17:31;;;;;;;24.02;5.80;;;;;;;;;;5116369;27;20027;-68
2021/08/16 05:19:58;;;;;;;27.60;6.55;;;;;;;;;;5108161;27;20063;-68
2021/08/16 05:22:24;;;;;;;27.02;5.85;;;;;;;;;;5112583;27;20039;-68
2021/08/16 05:24:50;;;;;;;27.98;6.43;;;;;;;;;;5107592;27;20042;-68
2021/08/16 05:27:36;;;;;;;24.33;6.60;;;;;;;;;;5100116;28;20074;-69
2021/08/16 05:30:03;;;;;;;20.23;5.30;;;;;;;;;;5109462;27;20126;-69
2021/08/16 05:32:30;;;;;;;23.60;5.72;;;;;;;;;;5113114;27;20038;-69
2021/08/16 05:34:57;;;;;;;21.42;5.80;;;;;;;;;;5108226;27;20044;-69
2021/08/16 05:37:23;;;;;;;23.10;5.78;;;;;;;;;;5114004;27;20044;-69
2021/08/16 05:39:49;;;;;;;21.02;5.47;;;;;;;;;;5112372;27;20037;-69
2021/08/16 05:42:16;;;;;;;22.10;6.03;;;;;;;;;;5108835;27;20052;-69
2021/08/16 05:44:46;;;;;;;22.48;4.70;;;;;;;;;;5106228;27;20044;-69
2021/08/16 05:47:13;;;;;;;22.80;5.40;;;;;;;;;;5117131;27;20032;-69
2021/08/16 05:49:39;;;;;;;22.38;5.13;;;;;;;;;;5108369;27;20039;-68
2021/08/16 05:52:06;;;;;;;23.10;5.35;;;;;;;;;;5113140;27;20039;-68
2021/08/16 05:54:32;;;;;;;26.42;5.70;;;;;;;;;;5114199;27;20039;-68
2021/08/16 05:57:01;;;;;;;17.65;5.07;;;;;;;;;;5110822;27;20511;-68
2021/08/16 05:59:28;;;;;;;23.05;6.20;;;;;;;;;;5115600;27;20471;-68
2021/08/16 06:01:54;;;;;;;25.00;5.28;;;;;;;;;;5103634;27;20100;-67
2021/08/16 06:04:20;;;;;;;26.10;6.07;;;;;;;;;;5118215;27;20475;-68
2021/08/16 06:06:46;;;;;;;20.33;5.47;;;;;;;;;;5112334;27;20039;-69
2021/08/16 06:09:12;;;;;;;20.77;5.55;;;;;;;;;;5115000;27;20122;-70
2021/08/16 06:11:39;;;;;;;23.02;5.78;;;;;;;;;;5105056;27;20044;-71
2021/08/16 06:14:05;;;;;;;20.30;5.38;;;;;;;;;;5120075;27;20495;-71
2021/08/16 06:16:31;;;;;;;22.63;5.78;;;;;;;;;;5109167;27;20027;-71
2021/08/16 06:18:57;;;;;;;20.48;6.10;;;;;;;;;;5114054;27;20522;-71
2021/08/16 06:21:23;;;;;;;18.75;6.18;;;;;;;;;;5088815;28;20042;-71
2021/08/16 06:23:49;;;;;;;23.13;6.93;;;;;;;;;;5117118;27;20039;-71
2021/08/16 06:26:15;;;;;;;19.20;6.40;;;;;;;;;;5107238;27;20068;-71
2021/08/16 06:28:42;;;;;;;21.75;6.65;;;;;;;;;;5110033;27;20132;-70
2021/08/16 06:31:08;;;;;;;20.35;6.93;;;;;;;;;;5114126;27;20036;-70
2021/08/16 06:33:41;;;;;;;21.15;7.22;;;;;;;;;;5111854;27;20053;-70
2021/08/16 06:36:07;;;;;;;18.02;6.50;;;;;;;;;;5094332;28;20600;-70
2021/08/16 06:38:34;;;;;;;16.90;5.80;;;;;;;;;;5105164;27;20051;-71
2021/08/16 06:41:00;;;;;;;17.15;7.40;;;;;;;;;;5100500;27;20044;-71
2021/08/16 06:43:27;;;;;;;18.00;6.05;;;;;;;;;;5110262;27;20188;-71
2021/08/16 06:45:54;;;;;;;15.55;5.47;;;;;;;;;;5109212;27;20055;-70
2021/08/16 06:48:20;;;;;;;11.48;5.32;;;;;;;;;;5102822;27;20169;-70
2021/08/16 06:50:46;;;;;;;13.10;5.45;;;;;;;;;;5119443;27;20044;-70
2021/08/16 06:53:14;;;;;;;7.75;4.45;;;;;;;;;;5091135;27;20084;-70
2021/08/16 06:55:45;;;;;;;7.75;4.70;;;;;;;;;;5093414;28;20039;-70
2021/08/16 06:58:11;;;;;;;7.60;3.95;;;;;;;;;;5105464;28;20047;-70
2021/08/16 07:00:42;;;;;;;10.13;4.72;;;;;;;;;;5113479;28;20046;-71
2021/08/16 07:03:10;;;;;;;10.15;4.70;;;;;;;;;;5101128;28;20035;-71
2021/08/16 07:05:37;;;;;;;9.18;3.83;;;;;;;;;;5114486;28;20431;-71
2021/08/16 07:08:03;;;;;;;7.70;3.80;;;;;;;;;;5112239;28;20118;-71
2021/08/16 07:10:30;;;;;;;11.45;4.55;;;;;;;;;;5092868;28;20056;-71
2021/08/16 07:12:56;;;;;;;11.15;5.00;;;;;;;;;;5104953;28;20047;-71
2021/08/16 07:15:23;;;;;;;5.72;3.03;;;;;;;;;;5108075;28;20032;-71
2021/08/16 07:17:49;;;;;;;6.97;2.95;;;;;;;;;;5117940;28;20089;-71
2021/08/16 07:20:15;;;;;;;6.28;2.40;;;;;;;;;;5104800;28;20035;-71
2021/08/16 07:22:41;;;;;;;6.18;2.67;;;;;;;;;;5108670;28;20032;-71
2021/08/16 07:25:08;;;;;;;3.97;2.25;;;;;;;;;;5104450;28;20480;-71
2021/08/16 07:27:34;;;;;;;5.38;2.00;;;;;;;;;;5118278;28;20072;-71
2021/08/16 07:30:00;;;;;;;5.72;1.92;;;;;;;;;;5106210;28;20035;-71
2021/08/16 07:32:26;;;;;;;6.20;2.00;;;;;;;;;;5098340;28;20040;-71
2021/08/16 07:34:53;;;;;;;3.88;1.55;;;;;;;;;;5107634;28;20107;-71
2021/08/16 07:37:19;;;;;;;6.57;2.10;;;;;;;;;;5099789;28;20584;-71
2021/08/16 07:39:45;;;;;;;6.75;1.67;;;;;;;;;;5101722;28;20043;-71
2021/08/16 07:42:11;;;;;;;6.20;1.40;;;;;;;;;;5115877;28;20038;-72
2021/08/16 07:44:37;;;;;;;8.73;1.65;;;;;;;;;;5105403;27;20031;-72
2021/08/16 07:47:05;;;;;;;5.20;1.42;;;;;;;;;;5116433;27;20625;-71
2021/08/16 07:49:32;;;;;;;7.47;1.55;;;;;;;;;;5108281;27;20099;-71
2021/08/16 07:51:58;;;;;;;5.47;1.20;;;;;;;;;;5118325;27;20121;-71
2021/08/16 07:54:25;;;;;;;3.60;1.30;;;;;;;;;;5112482;27;20040;-71
2021/08/16 07:56:51;;;;;;;5.82;1.40;;;;;;;;;;5091526;27;20070;-71
2021/08/16 07:59:18;;;;;;;5.95;1.50;;;;;;;;;;5118551;27;20027;-72
2021/08/16 08:01:45;;;;;;;8.70;1.33;;;;;;;;;;5114666;27;20411;-71
2021/08/16 08:04:11;;;;;;;4.47;1.00;;;;;;;;;;5098353;27;20114;-71
2021/08/16 08:06:38;;;;;;;7.07;1.95;;;;;;;;;;5103935;27;20042;-71
2021/08/16 08:09:04;;;;;;;4.85;1.23;;;;;;;;;;5121142;27;20042;-71
2021/08/16 08:11:30;;;;;;;5.68;1.55;;;;;;;;;;5112768;27;20130;-71
2021/08/16 08:13:56;;;;;;;5.10;1.40;;;;;;;;;;5114263;27;20043;-71
2021/08/16 08:16:23;;;;;;;4.88;1.25;;;;;;;;;;5079675;28;20434;-71
2021/08/16 08:18:49;;;;;;;5.25;1.20;;;;;;;;;;5121271;27;20039;-71
2021/08/16 08:21:16;;;;;;;5.68;1.48;;;;;;;;;;5109790;27;20091;-71
2021/08/16 08:23:42;;;;;;;4.60;1.20;;;;;;;;;;5112422;27;20380;-70
2021/08/16 08:26:09;;;;;;;6.43;1.35;;;;;;;;;;5103435;27;20476;-70
2021/08/16 08:28:35;;;;;;;4.22;1.70;;;;;;;;;;5089165;27;20062;-70
2021/08/16 08:31:01;;;;;;;4.78;1.27;;;;;;;;;;5108263;27;20130;-70
2021/08/16 08:33:27;;;;;;;4.28;1.58;;;;;;;;;;5113794;27;20424;-70
2021/08/16 08:35:53;;;;;;;6.97;1.80;;;;;;;;;;5116722;27;20058;-70
2021/08/16 08:38:20;;;;;;;4.32;1.13;;;;;;;;;;5095740;27;20126;-70
2021/08/16 08:40:46;;;;;;;5.25;1.50;;;;;;;;;;5115100;27;20047;-70
2021/08/16 08:43:14;;;;;;;4.60;1.50;;;;;;;;;;5107212;27;20040;-70
2021/08/16 08:45:42;;;;;;;6.63;2.05;;;;;;;;;;5116632;27;20038;-70
2021/08/16 08:48:09;;;;;;;5.78;1.77;;;;;;;;;;5107239;27;20114;-70
2021/08/16 08:50:35;;;;;;;3.13;1.67;;;;;;;;;;5116366;27;20453;-70
2021/08/16 08:53:03;;;;;;;5.30;1.58;;;;;;;;;;5106797;27;20578;-70
2021/08/16 08:55:30;;;;;;;4.82;1.50;;;;;;;;;;5119746;27;20032;-70
2021/08/16 08:57:58;;;;;;;7.13;1.95;;;;;;;;;;5103472;27;20154;-69
2021/08/16 09:00:24;;;;;;;6.60;1.83;;;;;;;;;;5097057;27;20107;-69
2021/08/16 09:03:04;;;;;;;7.53;2.38;;;;;;;;;;5092289;28;20056;-70
2021/08/16 09:05:31;;;;;;;6.90;2.30;;;;;;;;;;5116863;27;20041;-70
2021/08/16 09:07:59;;;;;;;7.93;2.45;;;;;;;;;;5107720;27;20063;-70
2021/08/16 09:10:27;;;;;;;7.60;2.30;;;;;;;;;;5096423;27;20127;-70
2021/08/16 09:12:57;;;;;;;6.97;2.38;;;;;;;;;;5112308;27;20043;-70
2021/08/16 09:15:24;;;;;;;7.03;1.80;;;;;;;;;;5117519;27;20035;-70
2021/08/16 09:17:51;;;;;;;4.60;1.75;;;;;;;;;;5104657;27;20123;-70
2021/08/16 09:20:29;;;;;;;6.55;1.60;;;;;;;;;;5115258;27;20466;-70
2021/08/16 09:22:59;;;;;;;8.05;1.50;;;;;;;;;;5111910;27;20066;-70
2021/08/16 09:25:32;;;;;;;7.80;1.63;;;;;;;;;;5116553;27;20035;-70
2021/08/16 09:27:58;;;;;;;7.47;1.65;;;;;;;;;;5112199;27;20559;-70
2021/08/16 09:30:43;;;;;;;7.63;1.50;;;;;;;;;;5110355;27;20031;-70
2021/08/16 09:33:16;;;;;;;6.68;2.38;;;;;;;;;;5105255;27;20031;-70
2021/08/16 09:36:08;;;;;;;4.75;1.40;;;;;;;;;;5119071;27;20042;-70
2021/08/16 09:38:34;;;;;;;6.93;1.65;;;;;;;;;;5103645;27;20126;-70
2021/08/16 09:41:01;;;;;;;5.75;2.20;;;;;;;;;;5087404;27;20059;-70
2021/08/16 09:43:27;;;;;;;9.98;2.28;;;;;;;;;;5116844;27;20035;-70
2021/08/16 09:45:54;;;;;;;9.57;2.40;;;;;;;;;;5109847;27;20507;-70
2021/08/16 09:48:21;;;;;;;8.52;2.20;;;;;;;;;;5083034;27;20511;-69
2021/08/16 09:50:48;;;;;;;10.93;2.35;;;;;;;;;;5105308;27;20042;-70
2021/08/16 09:53:16;;;;;;;6.43;1.90;;;;;;;;;;5117284;27;20039;-69
2021/08/16 09:55:45;;;;;;;7.65;1.73;;;;;;;;;;5110861;27;20039;-69
2021/08/16 09:58:15;;;;;;;8.55;2.30;;;;;;;;;;5081256;28;20097;-70
2021/08/16 10:00:42;;;;;;;5.38;2.25;;;;;;;;;;5099220;27;20495;-70
2021/08/16 10:03:11;;;;;;;6.72;2.22;;;;;;;;;;5112744;27;20463;-70
2021/08/16 10:05:38;;;;;;;4.93;1.83;;;;;;;;;;5111756;27;20411;-70
2021/08/16 10:08:06;;;;;;;6.38;2.05;;;;;;;;;;5107278;27;20080;-71
2021/08/16 10:10:32;;;;;;;6.32;2.25;;;;;;;;;;5107228;27;20052;-70
2021/08/16 10:12:59;;;;;;;6.32;1.83;;;;;;;;;;5117577;27;20058;-71
2021/08/16 10:15:26;;;;;;;5.55;2.05;;;;;;;;;;5106374;27;20077;-71
2021/08/16 10:17:53;;;;;;;7.28;2.00;;;;;;;;;;5108338;27;20071;-71
2021/08/16 10:20:20;;;;;;;4.40;1.40;;;;;;;;;;5111789;27;20612;-71
2021/08/16 10:22:46;;;;;;;6.25;1.60;;;;;;;;;;5114570;27;20097;-70
2021/08/16 10:25:13;;;;;;;5.57;1.80;;;;;;;;;;5106524;27;20043;-71
2021/08/16 10:27:39;;;;;;;5.63;1.40;;;;;;;;;;5099137;28;20091;-71
2021/08/16 10:30:13;;;;;;;5.18;1.67;;;;;;;;;;5118785;27;20038;-70
2021/08/16 10:32:39;;;;;;;4.55;1.02;;;;;;;;;;5108171;27;20031;-70
2021/08/16 10:35:13;;;;;;;5.40;1.10;;;;;;;;;;5110704;27;20028;-70
2021/08/16 10:37:43;;;;;;;3.60;1.27;;;;;;;;;;5109507;27;20036;-70
2021/08/16 10:40:25;;;;;;;3.95;1.10;;;;;;;;;;5113990;27;20037;-69
2021/08/16 10:42:53;;;;;;;5.43;1.40;;;;;;;;;;5110034;27;20035;-69
2021/08/16 10:45:27;;;;;;;4.57;1.38;;;;;;;;;;5114500;27;20506;-69
2021/08/16 10:48:00;;;;;;;9.07;2.00;;;;;;;;;;5102769;27;20083;-70
2021/08/16 10:50:27;;;;;;;5.32;1.42;;;;;;;;;;5097582;28;20058;-69
2021/08/16 10:53:19;;;;;;;5.45;1.70;;;;;;;;;;5105197;28;20031;-74
2021/08/16 10:55:45;;;;;;;6.68;2.00;;;;;;;;;;5105991;28;20114;-72
2021/08/16 10:58:12;;;;;;;6.10;2.20;;;;;;;;;;5094194;28;20449;-72
2021/08/16 11:00:39;;;;;;;7.85;1.80;;;;;;;;;;5116443;28;20393;-72
2021/08/16 11:03:07;;;;;;;7.30;2.47;;;;;;;;;;5113971;28;20096;-72
2021/08/16 11:05:35;;;;;;;8.02;2.80;;;;;;;;;;5094325;28;20262;-72
2021/08/16 11:08:02;;;;;;;7.47;2.10;;;;;;;;;;5104758;28;20504;-72
2021/08/16 11:10:38;;;;;;;9.90;2.83;;;;;;;;;;5098246;28;20044;-72
2021/08/16 11:13:21;;;;;;;7.88;2.20;;;;;;;;;;5109003;28;20035;-72
2021/08/16 11:15:48;;;;;;;6.93;2.30;;;;;;;;;;5111080;28;20480;-71
2021/08/16 11:18:19;;;;;;;9.13;2.63;;;;;;;;;;5102373;28;20114;-71
2021/08/16 11:20:46;;;;;;;7.88;2.50;;;;;;;;;;5117738;27;20028;-71
2021/08/16 11:23:12;;;;;;;11.43;3.10;;;;;;;;;;5110724;27;20028;-71
2021/08/16 11:25:49;;;;;;;10.68;2.72;;;;;;;;;;5115419;27;20043;-71
2021/08/16 11:28:18;;;;;;;10.48;2.97;;;;;;;;;;5104122;27;20046;-71
2021/08/16 11:30:44;;;;;;;10.85;3.25;;;;;;;;;;5119407;27;20077;-71
2021/08/16 11:33:11;;;;;;;9.38;2.72;;;;;;;;;;5112683;27;20055;-71
2021/08/16 11:35:37;;;;;;;9.60;2.60;;;;;;;;;;5113906;27;20540;-71
2021/08/16 11:38:13;;;;;;;12.55;2.88;;;;;;;;;;5108909;27;20130;-71
2021/08/16 11:40:39;;;;;;;9.85;2.92;;;;;;;;;;5083886;28;20103;-71
2021/08/16 11:43:05;;;;;;;12.15;2.42;;;;;;;;;;5117288;27;20039;-71
2021/08/16 11:45:36;;;;;;;12.15;3.35;;;;;;;;;;5106471;27;20059;-71
2021/08/16 11:48:02;;;;;;;10.00;2.47;;;;;;;;;;5114860;27;20028;-71
2021/08/16 11:50:28;;;;;;;9.25;2.28;;;;;;;;;;5113492;27;20066;-71
2021/08/16 11:52:54;;;;;;;7.35;1.73;;;;;;;;;;5115382;27;20077;-71
2021/08/16 11:55:25;;;;;;;8.43;2.40;;;;;;;;;;5088625;27;20105;-70
2021/08/16 11:57:52;;;;;;;8.60;1.88;;;;;;;;;;5119636;27;20079;-71
2021/08/16 12:00:22;;;;;;;13.13;2.60;;;;;;;;;;5110222;27;20165;-70
2021/08/16 12:02:48;;;;;;;10.75;2.47;;;;;;;;;;5116335;27;20075;-70
2021/08/16 12:05:15;;;;;;;9.40;2.10;;;;;;;;;;5108850;27;20092;-70
2021/08/16 12:07:45;;;;;;;9.75;2.33;;;;;;;;;;5116051;27;20032;-70
2021/08/16 12:10:16;;;;;;;15.13;2.30;;;;;;;;;;5108564;27;20036;-71
2021/08/16 12:12:42;;;;;;;6.75;2.15;;;;;;;;;;5111011;27;20047;-71
2021/08/16 12:15:13;;;;;;;13.10;2.45;;;;;;;;;;5112649;27;20035;-70
2021/08/16 12:17:39;;;;;;;10.45;2.35;;;;;;;;;;5120740;27;20119;-70
2021/08/16 12:20:07;;;;;;;8.98;2.13;;;;;;;;;;5111583;27;20031;-70
2021/08/16 12:22:33;;;;;;;9.60;2.63;;;;;;;;;;5113939;27;20095;-70
2021/08/16 12:25:07;;;;;;;7.78;2.28;;;;;;;;;;5076821;27;20063;-70
2021/08/16 12:27:33;;;;;;;10.60;2.30;;;;;;;;;;5099942;27;20038;-70
2021/08/16 12:30:00;;;;;;;11.98;2.15;;;;;;;;;;5110821;27;20035;-70
2021/08/16 12:32:31;;;;;;;9.45;2.28;;;;;;;;;;5107352;27;20081;-70
2021/08/16 12:35:02;;;;;;;11.52;2.58;;;;;;;;;;5119287;27;20181;-70
2021/08/16 12:37:32;;;;;;;11.05;2.45;;;;;;;;;;5111737;27;20440;-69
2021/08/16 12:40:05;;;;;;;12.65;3.05;;;;;;;;;;5113873;27;20040;-69
2021/08/16 12:42:32;;;;;;;13.18;3.67;;;;;;;;;;5087496;28;20104;-70
2021/08/16 12:44:58;;;;;;;8.70;3.42;;;;;;;;;;5082976;27;20047;-70
2021/08/16 12:47:30;;;;;;;11.63;3.45;;;;;;;;;;5109716;27;20449;-70
2021/08/16 12:49:56;;;;;;;7.70;2.42;;;;;;;;;;5112593;27;20550;-70
2021/08/16 12:52:23;;;;;;;11.73;2.33;;;;;;;;;;5104505;27;20027;-69
2021/08/16 12:54:49;;;;;;;9.55;2.58;;;;;;;;;;5116132;27;20043;-69
2021/08/16 12:57:15;;;;;;;8.93;2.28;;;;;;;;;;5109310;27;20128;-69
2021/08/16 12:59:42;;;;;;;6.18;2.08;;;;;;;;;;5115113;27;20027;-69
2021/08/16 13:02:08;;;;;;;7.03;1.92;;;;;;;;;;5092536;28;20488;-69
2021/08/16 13:04:34;;;;;;;6.80;1.70;;;;;;;;;;5117787;27;20495;-68
2021/08/16 13:07:00;;;;;;;6.47;1.90;;;;;;;;;;5108713;27;20114;-69
2021/08/16 13:09:27;;;;;;;9.90;2.60;;;;;;;;;;5111202;27;20432;-69
2021/08/16 13:11:53;;;;;;;6.68;2.20;;;;;;;;;;5111753;27;20043;-69
2021/08/16 13:14:20;;;;;;;13.43;3.05;;;;;;;;;;5116539;27;20138;-69
2021/08/16 13:16:46;;;;;;;8.98;2.17;;;;;;;;;;5111657;27;20039;-69
2021/08/16 13:19:12;;;;;;;8.10;1.90;;;;;;;;;;5105275;27;20054;-68
2021/08/16 13:21:38;;;;;;;7.72;2.30;;;;;;;;;;5120846;27;20083;-68
2021/08/16 13:24:04;;;;;;;7.53;1.77;;;;;;;;;;5089246;27;20031;-69
2021/08/16 13:26:31;;;;;;;11.35;2.00;;;;;;;;;;5117514;27;20027;-69
2021/08/16 13:28:57;;;;;;;6.18;1.30;;;;;;;;;;5107495;27;20467;-69
2021/08/16 13:31:23;;;;;;;9.00;1.92;;;;;;;;;;5117533;27;20039;-69
2021/08/16 13:33:49;;;;;;;7.05;1.85;;;;;;;;;;5105657;27;20035;-69
2021/08/16 13:36:15;;;;;;;10.30;2.10;;;;;;;;;;5108657;27;20555;-70
2021/08/16 13:38:41;;;;;;;7.25;1.45;;;;;;;;;;5111925;27;20055;-69
2021/08/16 13:41:07;;;;;;;8.15;1.50;;;;;;;;;;5081039;28;20048;-69
2021/08/16 13:43:34;;;;;;;8.68;1.65;;;;;;;;;;5106020;27;20061;-68
2021/08/16 13:46:00;;;;;;;4.45;1.38;;;;;;;;;;5115572;27;20028;-68
2021/08/16 13:48:26;;;;;;;4.68;1.67;;;;;;;;;;5109007;27;20036;-68
2021/08/16 13:50:52;;;;;;;9.57;1.70;;;;;;;;;;5113246;27;20043;-68
2021/08/16 13:53:18;;;;;;;6.28;1.40;;;;;;;;;;5106569;27;20032;-69
2021/08/16 13:55:45;;;;;;;6.95;1.55;;;;;;;;;;5093738;28;20048;-68
2021/08/16 13:58:13;;;;;;;9.13;1.58;;;;;;;;;;5119066;27;20084;-68
2021/08/16 14:00:39;;;;;;;8.63;1.50;;;;;;;;;;5107486;27;20039;-68
2021/08/16 14:03:05;;;;;;;4.47;1.40;;;;;;;;;;5114201;27;20219;-68
2021/08/16 14:05:31;;;;;;;10.45;1.50;;;;;;;;;;5110463;27;20044;-68
2021/08/16 14:07:57;;;;;;;7.78;1.17;;;;;;;;;;5112212;27;20126;-68
2021/08/16 14:10:23;;;;;;;6.63;1.20;;;;;;;;;;5098778;27;20081;-68
2021/08/16 14:12:50;;;;;;;7.82;1.60;;;;;;;;;;5115038;27;20548;-67
2021/08/16 14:15:16;;;;;;;7.88;1.55;;;;;;;;;;5111876;27;20449;-67
2021/08/16 14:17:42;;;;;;;7.90;1.38;;;;;;;;;;5112064;27;20459;-68
2021/08/16 14:20:08;;;;;;;8.63;1.40;;;;;;;;;;5097566;27;20066;-68
2021/08/16 14:22:36;;;;;;;6.55;1.10;;;;;;;;;;5116367;27;20159;-68
2021/08/16 14:25:03;;;;;;;7.70;1.35;;;;;;;;;;5109975;27;20032;-68
2021/08/16 14:27:29;;;;;;;9.15;1.60;;;;;;;;;;5113141;27;20528;-68
2021/08/16 14:29:55;;;;;;;7.18;1.35;;;;;;;;;;5107072;27;20044;-68
2021/08/16 14:32:21;;;;;;;8.50;1.70;;;;;;;;;;5115814;27;20040;-68
2021/08/16 14:34:47;;;;;;;5.82;1.20;;;;;;;;;;5113158;27;20448;-68
2021/08/16 14:37:13;;;;;;;9.25;1.92;;;;;;;;;;5108457;27;20402;-68